Time;durP1;ratioP1;P1;durP2;ratioP2;P2;SDS_P1;SDS_P2;PMS_P1;PMS_P2;Temp;Humidity;BMP_temperature;BMP_pressure;BME280_temperature;BME280_humidity;BME280_pressure;Samples;Min_cycle;Max_cycle;Signal;HPM_P1;HPM_P2
2022/02/21 00:01:10;;;;;;;6.62;2.90;;;;;;;3.09;71.53;97156.02;1756532;81;21395;-62
2022/02/21 00:03:37;;;;;;;6.12;3.05;;;;;;;3.11;71.54;97155.78;1756449;81;21499;-63
2022/02/21 00:06:05;;;;;;;4.58;3.10;;;;;;;3.14;71.43;97149.42;1756364;81;21452;-63
2022/02/21 00:08:33;;;;;;;6.83;3.35;;;;;;;3.17;71.38;97141.48;1756338;81;21391;-65
2022/02/21 00:11:02;;;;;;;7.00;3.37;;;;;;;3.21;71.36;97137.25;1756200;81;20916;-67
2022/02/21 00:13:29;;;;;;;7.70;3.45;;;;;;;3.23;71.21;97134.60;1756327;81;21443;-60
2022/02/21 00:15:55;;;;;;;5.08;3.58;;;;;;;3.24;71.13;97132.76;1756221;81;21119;-65
2022/02/21 00:18:22;;;;;;;5.30;3.20;;;;;;;3.24;71.12;97132.76;1756170;81;20877;-64
2022/02/21 00:20:49;;;;;;;5.45;3.37;;;;;;;3.25;71.09;97137.00;1756102;81;20857;-66
2022/02/21 00:23:17;;;;;;;5.05;3.17;;;;;;;3.23;71.17;97128.51;1756171;81;20947;-66
2022/02/21 00:25:45;;;;;;;5.35;3.45;;;;;;;3.23;71.17;97118.72;1756229;81;20944;-65
2022/02/21 00:28:12;;;;;;;6.12;3.50;;;;;;;3.25;71.17;97121.13;1756382;81;21079;-64
2022/02/21 00:30:41;;;;;;;6.97;3.62;;;;;;;3.22;71.16;97121.64;1756255;81;21403;-63
2022/02/21 00:33:07;;;;;;;6.92;3.62;;;;;;;3.20;71.31;97113.95;1756179;81;20987;-65
2022/02/21 00:35:34;;;;;;;5.87;3.42;;;;;;;3.20;71.39;97102.59;1756274;81;21011;-65
2022/02/21 00:38:00;;;;;;;5.42;3.60;;;;;;;3.18;71.42;97098.09;1756432;81;21297;-65
2022/02/21 00:40:27;;;;;;;7.53;4.03;;;;;;;3.17;71.39;97084.59;1756204;81;21070;-65
2022/02/21 00:42:53;;;;;;;6.70;4.55;;;;;;;3.15;71.41;97084.06;1756140;81;21030;-62
2022/02/21 00:45:20;;;;;;;8.23;5.70;;;;;;;3.16;71.50;97081.66;1756313;81;21415;-63
2022/02/21 00:47:47;;;;;;;10.85;5.08;;;;;;;3.17;71.49;97076.66;1757298;81;21016;-66
2022/02/21 00:50:13;;;;;;;8.98;5.47;;;;;;;3.19;71.50;97067.91;1758627;81;20963;-63
2022/02/21 00:52:40;;;;;;;21.87;12.28;;;;;;;3.22;71.55;97074.01;1758619;81;21820;-61
2022/02/21 00:55:07;;;;;;;18.90;11.65;;;;;;;3.26;71.53;97070.56;1758531;81;20983;-62
2022/02/21 00:57:34;;;;;;;10.80;6.90;;;;;;;3.29;71.51;97064.75;1758665;81;20975;-61
2022/02/21 01:00:02;;;;;;;7.83;3.75;;;;;;;3.32;71.42;97058.13;1758682;81;20939;-61
2022/02/21 01:02:32;;;;;;;8.18;4.80;;;;;;;3.30;71.27;97055.73;1758630;81;20860;-64
2022/02/21 01:04:57;;;;;;;9.18;4.85;;;;;;;3.29;71.25;97042.78;1758899;80;21120;-63
2022/02/21 01:07:24;;;;;;;9.80;5.45;;;;;;;3.27;71.20;97042.25;1731343;81;20955;-61
2022/02/21 01:09:50;;;;;;;7.65;4.25;;;;;;;3.24;71.36;97040.12;1758884;81;21327;-61
2022/02/21 01:12:17;;;;;;;7.45;3.75;;;;;;;3.22;71.47;97034.31;1758579;81;21050;-61
2022/02/21 01:14:44;;;;;;;5.92;3.70;;;;;;;3.20;71.42;97030.59;1758593;81;21019;-64
2022/02/21 01:17:11;;;;;;;8.40;3.27;;;;;;;3.19;71.48;97025.05;1758558;81;21159;-63
2022/02/21 01:19:38;;;;;;;6.65;3.52;;;;;;;3.19;71.49;97021.08;1758448;81;20896;-66
2022/02/21 01:22:06;;;;;;;8.83;3.70;;;;;;;3.19;71.61;97020.28;1758485;81;20948;-65
2022/02/21 01:24:34;;;;;;;5.08;3.50;;;;;;;3.21;71.65;97022.13;1758481;81;20994;-63
2022/02/21 01:27:01;;;;;;;5.65;3.55;;;;;;;3.19;71.66;97017.63;1758635;81;20954;-65
2022/02/21 01:29:27;;;;;;;5.47;3.87;;;;;;;3.17;71.63;97013.14;1758715;81;21878;-65
2022/02/21 01:31:55;;;;;;;5.95;3.83;;;;;;;3.14;71.70;97008.38;1758532;81;20979;-65
2022/02/21 01:34:21;;;;;;;5.53;3.90;;;;;;;3.11;71.80;97007.05;1758858;81;20900;-65
2022/02/21 01:36:49;;;;;;;5.97;3.40;;;;;;;3.10;71.90;97009.97;1758577;81;20868;-65
2022/02/21 01:39:15;;;;;;;5.33;3.60;;;;;;;3.09;72.00;97008.38;1758881;81;20983;-62
2022/02/21 01:41:42;;;;;;;8.30;3.47;;;;;;;3.11;72.01;96997.02;1758693;81;21187;-65
2022/02/21 01:44:10;;;;;;;4.72;3.20;;;;;;;3.10;72.07;96997.55;1758531;81;20884;-63
2022/02/21 01:46:37;;;;;;;7.53;3.08;;;;;;;3.11;72.15;96997.79;1758499;81;20935;-65
2022/02/21 01:49:05;;;;;;;4.33;2.65;;;;;;;3.11;72.28;96991.17;1756383;81;21030;-61
2022/02/21 01:51:33;;;;;;;4.92;2.83;;;;;;;3.13;72.38;96990.37;1756114;81;20924;-65
2022/02/21 01:54:03;;;;;;;5.10;2.72;;;;;;;3.13;72.41;96977.14;1756160;81;21118;-60
2022/02/21 01:56:29;;;;;;;4.08;2.70;;;;;;;3.15;72.52;96974.25;1756117;81;20918;-65
2022/02/21 01:58:56;;;;;;;4.85;2.85;;;;;;;3.14;72.53;96966.84;1756253;81;20975;-67
2022/02/21 02:01:22;;;;;;;6.35;3.50;;;;;;;3.17;72.55;96970.28;1756301;81;20888;-66
2022/02/21 02:03:49;;;;;;;6.87;3.40;;;;;;;3.21;72.50;96970.00;1756436;81;20935;-63
2022/02/21 02:06:16;;;;;;;3.85;2.52;;;;;;;3.23;72.42;96963.91;1756307;81;21119;-63
2022/02/21 02:08:42;;;;;;;7.53;2.90;;;;;;;3.26;72.39;96967.87;1700805;81;20939;-64
2022/02/21 02:11:09;;;;;;;7.60;4.10;;;;;;;3.27;72.34;96968.15;1756589;81;20857;-62
2022/02/21 02:13:36;;;;;;;5.90;3.65;;;;;;;3.28;72.39;96965.75;1756256;81;20990;-66
2022/02/21 02:16:03;;;;;;;3.95;2.42;;;;;;;3.29;72.35;96962.05;1756620;81;20932;-63
2022/02/21 02:18:30;;;;;;;5.60;3.80;;;;;;;3.32;72.33;96967.59;1756317;81;21113;-64
2022/02/21 02:20:57;;;;;;;5.67;2.98;;;;;;;3.36;72.37;96963.89;1756360;81;21436;-65
2022/02/21 02:23:24;;;;;;;5.10;3.10;;;;;;;3.40;72.36;96950.38;1756491;81;21010;-64
2022/02/21 02:25:50;;;;;;;4.97;3.17;;;;;;;3.41;72.34;96948.00;1756285;81;20889;-64
2022/02/21 02:28:17;;;;;;;4.80;2.98;;;;;;;3.44;72.30;96946.91;1756231;81;20940;-65
2022/02/21 02:30:44;;;;;;;10.70;6.22;;;;;;;3.46;72.21;96937.40;1756502;81;21851;-64
2022/02/21 02:33:10;;;;;;;7.67;4.50;;;;;;;3.48;72.18;96936.59;1756209;81;20928;-66
2022/02/21 02:35:37;;;;;;;12.80;8.85;;;;;;;3.49;72.23;96934.19;1756561;81;20951;-63
2022/02/21 02:38:04;;;;;;;9.45;4.72;;;;;;;3.50;72.25;96929.17;1756162;81;21070;-66
2022/02/21 02:40:33;;;;;;;6.17;4.35;;;;;;;3.49;72.31;96928.13;1756316;81;20896;-62
2022/02/21 02:43:02;;;;;;;6.05;3.65;;;;;;;3.48;72.37;96923.36;1756327;81;21697;-63
2022/02/21 02:45:28;;;;;;;5.25;2.87;;;;;;;3.51;72.41;96910.88;1722548;83;20895;-65
2022/02/21 02:47:55;;;;;;;10.68;7.80;;;;;;;3.53;72.44;96922.02;1693839;84;20992;-61
2022/02/21 02:50:22;;;;;;;36.30;21.77;;;;;;;3.55;72.53;96919.89;1756254;81;20900;-61
2022/02/21 02:52:48;;;;;;;28.75;18.07;;;;;;;3.58;72.52;96910.61;1756293;81;20948;-62
2022/02/21 02:55:14;;;;;;;12.18;7.75;;;;;;;3.59;72.59;96914.30;1756340;81;21065;-63
2022/02/21 02:57:41;;;;;;;8.00;4.47;;;;;;;3.61;72.59;96896.28;1756426;81;20980;-63
2022/02/21 03:00:13;;;;;;;10.35;3.75;;;;;;;3.63;72.54;96895.47;1756468;81;20916;-64
2022/02/21 03:02:39;;;;;;;5.15;3.20;;;;;;;3.65;72.60;96890.69;1756275;81;20956;-62
2022/02/21 03:05:07;;;;;;;5.45;3.60;;;;;;;3.66;72.63;96887.52;1756294;81;21475;-62
2022/02/21 03:07:35;;;;;;;11.00;5.90;;;;;;;3.64;72.71;96887.80;1756266;81;21113;-63
2022/02/21 03:10:03;;;;;;;25.27;15.10;;;;;;;3.65;72.76;96873.48;1756428;81;21388;-65
2022/02/21 03:12:30;;;;;;;18.05;8.70;;;;;;;3.70;72.85;96876.66;1756371;81;20900;-66
2022/02/21 03:14:57;;;;;;;11.50;5.05;;;;;;;3.73;72.80;96868.15;1756324;81;21363;-61
2022/02/21 03:17:24;;;;;;;6.28;3.08;;;;;;;3.76;72.77;96863.11;1756287;81;21022;-62
2022/02/21 03:19:51;;;;;;;4.62;2.80;;;;;;;3.78;72.80;96867.60;1756259;81;21120;-62
2022/02/21 03:22:17;;;;;;;5.22;2.90;;;;;;;3.79;72.82;96855.92;1756231;81;21470;-61
2022/02/21 03:24:44;;;;;;;5.20;3.00;;;;;;;3.79;72.88;96858.57;1756278;81;20983;-63
2022/02/21 03:27:11;;;;;;;7.55;5.67;;;;;;;3.80;72.87;96853.55;1756224;81;20932;-63
2022/02/21 03:29:38;;;;;;;22.15;11.73;;;;;;;3.81;72.89;96856.99;1756193;81;20936;-62
2022/02/21 03:32:06;;;;;;;7.25;3.58;;;;;;;3.81;72.92;96843.75;1756250;81;21073;-62
2022/02/21 03:34:33;;;;;;;7.17;3.10;;;;;;;3.83;72.96;96846.91;1756335;81;21424;-66
2022/02/21 03:37:00;;;;;;;5.40;2.60;;;;;;;3.85;72.97;96842.92;1756257;81;20896;-64
2022/02/21 03:39:26;;;;;;;4.03;2.80;;;;;;;3.87;73.03;96834.69;1756141;81;20896;-65
2022/02/21 03:41:53;;;;;;;5.08;2.80;;;;;;;3.89;73.02;96833.35;1756175;81;21432;-62
2022/02/21 03:44:19;;;;;;;4.17;3.33;;;;;;;3.91;72.92;96831.22;1756251;81;21159;-66
2022/02/21 03:46:46;;;;;;;36.45;19.25;;;;;;;3.91;72.90;96817.97;1756089;81;20972;-62
2022/02/21 03:49:13;;;;;;;69.87;35.78;;;;;;;3.89;72.88;96820.11;1757813;81;21021;-65
2022/02/21 03:51:40;;;;;;;14.98;7.95;;;;;;;3.86;72.91;96811.38;1758553;81;20944;-65
2022/02/21 03:54:07;;;;;;;5.35;3.42;;;;;;;3.82;72.92;96819.62;1758675;81;21442;-61
2022/02/21 03:56:35;;;;;;;7.92;3.50;;;;;;;3.78;72.97;96819.92;1758639;81;21128;-62
2022/02/21 03:59:02;;;;;;;6.65;3.62;;;;;;;3.78;72.99;96818.60;1758756;81;20892;-65
2022/02/21 04:01:29;;;;;;;5.50;3.42;;;;;;;3.76;73.03;96811.99;1758657;81;20923;-62
2022/02/21 04:03:55;;;;;;;7.20;5.03;;;;;;;3.75;73.08;96811.20;1758635;81;21482;-62
2022/02/21 04:06:22;;;;;;;10.70;5.97;;;;;;;3.73;73.10;96805.38;1758859;81;20925;-62
2022/02/21 04:08:48;;;;;;;7.83;4.20;;;;;;;3.73;73.12;96801.41;1758552;81;21113;-65
2022/02/21 04:11:16;;;;;;;5.58;3.75;;;;;;;3.72;73.12;96800.37;1758561;81;20928;-64
2022/02/21 04:13:43;;;;;;;5.20;3.20;;;;;;;3.72;73.13;96799.05;1758629;81;20916;-62
2022/02/21 04:16:09;;;;;;;5.20;3.22;;;;;;;3.72;73.12;96792.43;1758712;81;21419;-63
2022/02/21 04:18:36;;;;;;;5.37;3.10;;;;;;;3.70;73.05;96795.89;1758671;81;20943;-61
2022/02/21 04:21:02;;;;;;;6.70;3.00;;;;;;;3.69;73.06;96789.80;1758526;81;21090;-65
2022/02/21 04:23:29;;;;;;;5.90;3.25;;;;;;;3.67;73.11;96780.02;1758545;81;20880;-63
2022/02/21 04:25:56;;;;;;;5.65;3.40;;;;;;;3.63;73.17;96773.66;1758718;81;20936;-62
2022/02/21 04:28:23;;;;;;;6.30;2.98;;;;;;;3.60;73.22;96764.97;1758885;81;20856;-66
2022/02/21 04:30:50;;;;;;;6.05;4.22;;;;;;;3.57;73.24;96764.19;1758548;81;20884;-65
2022/02/21 04:33:17;;;;;;;6.83;4.30;;;;;;;3.56;73.32;96768.44;1758502;81;21126;-62
2022/02/21 04:35:43;;;;;;;8.18;5.10;;;;;;;3.53;73.34;96750.45;1758538;81;21866;-61
2022/02/21 04:38:12;;;;;;;11.45;7.78;;;;;;;3.50;73.45;96753.11;1758812;81;20955;-63
2022/02/21 04:40:38;;;;;;;25.90;16.07;;;;;;;3.46;73.53;96752.09;1758679;81;21456;-61
2022/02/21 04:43:05;;;;;;;45.40;31.87;;;;;;;3.43;73.71;96745.48;1758901;81;20912;-61
2022/02/21 04:45:32;;;;;;;15.85;12.23;;;;;;;3.44;73.83;96744.92;1758498;81;21037;-59
2022/02/21 04:47:59;;;;;;;14.23;10.32;;;;;;;3.46;73.89;96734.88;1758563;81;21444;-60
2022/02/21 04:50:25;;;;;;;11.20;7.85;;;;;;;3.50;73.93;96729.28;1754602;81;20963;-65
2022/02/21 04:52:52;;;;;;;9.25;6.25;;;;;;;3.56;73.99;96734.79;1754467;81;20940;-64
2022/02/21 04:55:19;;;;;;;9.00;5.20;;;;;;;3.59;74.00;96721.02;1754587;81;21400;-61
2022/02/21 04:57:46;;;;;;;5.67;4.53;;;;;;;3.66;74.02;96725.98;1754588;81;21113;-62
2022/02/21 05:00:14;;;;;;;7.47;3.70;;;;;;;3.69;73.93;96723.59;1754523;81;20873;-61
2022/02/21 05:02:41;;;;;;;7.12;4.03;;;;;;;3.71;73.94;96720.12;1754642;81;20923;-60
2022/02/21 05:05:13;;;;;;;5.12;3.50;;;;;;;3.74;73.91;96712.96;1754549;81;21542;-62
2022/02/21 05:07:43;;;;;;;9.00;5.55;;;;;;;3.74;74.01;96710.31;1753786;81;20947;-60
2022/02/21 05:10:09;;;;;;;42.08;21.65;;;;;;;3.78;74.05;96707.89;1754500;81;21097;-62
2022/02/21 05:12:38;;;;;;;13.32;7.03;;;;;;;3.82;74.07;96703.08;1754521;81;20991;-62
2022/02/21 05:15:06;;;;;;;11.12;6.22;;;;;;;3.84;74.04;96703.59;1754774;81;21047;-62
2022/02/21 05:17:34;;;;;;;8.25;5.45;;;;;;;3.88;74.09;96700.66;1754736;81;20971;-60
2022/02/21 05:20:00;;;;;;;6.47;4.10;;;;;;;3.91;74.09;96702.73;1754797;81;20921;-61
2022/02/21 05:22:27;;;;;;;6.33;4.28;;;;;;;3.91;74.10;96698.76;1754588;81;21446;-63
2022/02/21 05:24:54;;;;;;;4.70;4.20;;;;;;;3.91;74.08;96690.81;1754497;81;20940;-62
2022/02/21 05:27:21;;;;;;;5.20;3.27;;;;;;;3.88;74.24;96696.69;1754817;81;20924;-64
2022/02/21 05:29:47;;;;;;;5.55;3.98;;;;;;;3.86;74.31;96692.17;1754639;81;20975;-65
2022/02/21 05:32:13;;;;;;;5.78;4.37;;;;;;;3.87;74.38;96691.65;1754479;81;20979;-63
2022/02/21 05:34:40;;;;;;;7.08;5.30;;;;;;;3.88;74.48;96684.77;1754930;81;21139;-61
2022/02/21 05:37:09;;;;;;;8.10;4.80;;;;;;;3.90;74.56;96684.48;1754630;81;21456;-60
2022/02/21 05:39:35;;;;;;;11.90;7.28;;;;;;;3.93;74.57;96686.58;1754704;81;20968;-63
2022/02/21 05:42:03;;;;;;;9.20;6.42;;;;;;;3.97;74.53;96681.77;1754647;81;21024;-64
2022/02/21 05:44:30;;;;;;;8.65;6.22;;;;;;;4.01;74.50;96684.10;1754901;81;21300;-61
2022/02/21 05:46:56;;;;;;;15.72;9.15;;;;;;;4.06;74.53;96679.28;1754685;81;21130;-63
2022/02/21 05:49:23;;;;;;;7.42;5.17;;;;;;;4.11;74.42;96682.69;1754475;81;20852;-64
2022/02/21 05:51:49;;;;;;;6.25;4.05;;;;;;;4.14;74.35;96668.86;1754680;81;21392;-63
2022/02/21 05:54:16;;;;;;;5.65;3.90;;;;;;;4.19;74.19;96660.63;1754634;81;20963;-65
2022/02/21 05:56:42;;;;;;;8.23;4.85;;;;;;;4.24;74.12;96664.55;1754713;81;20924;-65
2022/02/21 05:59:09;;;;;;;7.60;5.50;;;;;;;4.28;73.95;96668.20;1754667;81;21126;-66
2022/02/21 06:01:36;;;;;;;8.33;4.67;;;;;;;4.30;73.88;96652.80;1754615;81;20881;-64
2022/02/21 06:04:02;;;;;;;8.63;5.60;;;;;;;4.32;73.74;96644.83;1754667;81;20920;-61
2022/02/21 06:06:29;;;;;;;10.45;5.20;;;;;;;4.35;73.65;96647.45;1754635;81;20876;-62
2022/02/21 06:08:56;;;;;;;10.75;5.15;;;;;;;4.36;73.54;96642.41;1754613;81;20983;-60
2022/02/21 06:11:23;;;;;;;6.67;5.40;;;;;;;4.41;73.48;96643.66;1754684;81;21535;-61
2022/02/21 06:13:49;;;;;;;37.35;23.22;;;;;;;4.42;73.34;96637.30;1754575;81;21478;-63
2022/02/21 06:16:16;;;;;;;18.00;9.13;;;;;;;4.47;73.26;96631.94;1754652;81;20880;-60
2022/02/21 06:18:43;;;;;;;36.33;25.25;;;;;;;4.53;73.08;96644.84;1754905;81;20901;-61
2022/02/21 06:21:09;;;;;;;13.62;7.33;;;;;;;4.60;72.96;96635.20;1755034;81;20881;-60
2022/02/21 06:23:36;;;;;;;7.53;5.55;;;;;;;4.66;72.66;96635.41;1754598;81;21079;-64
2022/02/21 06:26:04;;;;;;;6.92;5.25;;;;;;;4.72;72.42;96628.95;1754426;81;20877;-64
2022/02/21 06:28:31;;;;;;;8.33;5.80;;;;;;;4.75;72.29;96625.74;1754713;81;21017;-60
2022/02/21 06:30:58;;;;;;;10.13;6.62;;;;;;;4.79;72.08;96624.09;1754839;81;21433;-62
2022/02/21 06:33:25;;;;;;;7.87;4.78;;;;;;;4.81;71.96;96624.05;1754641;81;21022;-61
2022/02/21 06:35:51;;;;;;;12.28;8.15;;;;;;;4.85;71.80;96620.31;1754450;81;21115;-66
2022/02/21 06:38:18;;;;;;;12.53;7.87;;;;;;;4.90;71.67;96616.80;1754504;81;20880;-61
2022/02/21 06:40:45;;;;;;;14.70;7.55;;;;;;;4.94;71.51;96619.91;1754851;81;21051;-64
2022/02/21 06:43:11;;;;;;;7.42;4.72;;;;;;;4.99;71.42;96613.21;1754801;81;21391;-62
2022/02/21 06:45:38;;;;;;;6.92;4.40;;;;;;;5.05;71.09;96621.34;1754542;81;20972;-64
2022/02/21 06:48:05;;;;;;;11.75;5.25;;;;;;;5.10;70.83;96611.98;1754497;81;21026;-63
2022/02/21 06:50:32;;;;;;;8.38;4.65;;;;;;;5.14;70.58;96603.68;1754476;81;20885;-62
2022/02/21 06:52:59;;;;;;;13.50;9.78;;;;;;;5.17;70.48;96604.44;1754628;81;20948;-61
2022/02/21 06:55:25;;;;;;;9.75;5.95;;;;;;;5.20;70.55;96603.88;1754575;81;20952;-67
2022/02/21 06:57:53;;;;;;;11.00;5.17;;;;;;;5.25;70.70;96606.42;1754640;81;20909;-67
2022/02/21 07:00:20;;;;;;;8.25;4.97;;;;;;;5.31;70.55;96594.66;1754611;81;21109;-64
2022/02/21 07:02:48;;;;;;;6.72;4.45;;;;;;;5.38;70.19;96592.95;1754469;81;20983;-64
2022/02/21 07:05:14;;;;;;;8.18;4.50;;;;;;;5.43;69.82;96591.02;1754504;81;21545;-65
2022/02/21 07:07:42;;;;;;;6.75;4.65;;;;;;;5.49;69.46;96594.36;1754501;81;20900;-66
2022/02/21 07:10:10;;;;;;;9.93;6.60;;;;;;;5.57;69.58;96595.56;1755468;81;20887;-67
2022/02/21 07:12:38;;;;;;;9.45;6.22;;;;;;;5.63;69.07;96592.52;1756581;81;21381;-63
2022/02/21 07:15:06;;;;;;;9.43;5.62;;;;;;;5.69;68.73;96586.59;1752765;80;20951;-68
2022/02/21 07:17:41;;;;;;;7.78;6.15;;;;;;;5.76;68.94;96592.31;1742086;81;20919;-67
2022/02/21 07:20:12;;;;;;;7.87;5.90;;;;;;;5.81;68.35;96581.60;1756620;81;20943;-68
2022/02/21 07:22:40;;;;;;;12.93;5.85;;;;;;;5.82;68.41;96577.84;1756432;80;20899;-69
2022/02/21 07:25:09;;;;;;;14.95;6.45;;;;;;;5.86;67.89;96590.31;1745206;81;21097;-67
2022/02/21 07:27:50;;;;;;;12.75;6.22;;;;;;;5.85;67.87;96569.33;1734103;81;42342;-70
2022/02/21 07:30:19;;;;;;;12.88;6.72;;;;;;;5.82;67.75;96588.47;1744545;81;21715;-63
2022/02/21 07:32:48;;;;;;;8.80;5.50;;;;;;;5.78;67.57;96591.48;1691220;84;20926;-61
2022/02/21 07:35:15;;;;;;;11.63;6.05;;;;;;;5.72;67.51;96575.39;1739976;81;21728;-68
2022/02/21 07:37:42;;;;;;;6.85;4.97;;;;;;;5.66;67.64;96584.52;1748929;81;21108;-62
2022/02/21 07:40:10;;;;;;;11.05;6.40;;;;;;;5.62;67.81;96582.20;1737224;81;20884;-64
2022/02/21 07:42:39;;;;;;;12.80;5.95;;;;;;;5.59;68.04;96568.97;1755971;81;21491;-63
2022/02/21 07:45:08;;;;;;;12.68;6.25;;;;;;;5.59;68.09;96566.31;1755717;81;21437;-68
2022/02/21 07:47:52;;;;;;;12.35;5.97;;;;;;;5.57;68.18;96576.44;1754950;81;20971;-66
2022/02/21 07:50:21;;;;;;;10.78;6.20;;;;;;;5.56;68.06;96564.79;1747166;81;21152;-60
2022/02/21 07:52:55;;;;;;;10.80;6.80;;;;;;;5.52;68.17;96545.45;1734306;82;21715;-60
2022/02/21 07:55:24;;;;;;;11.05;7.20;;;;;;;5.52;68.23;96553.95;1743806;82;22117;-61
2022/02/21 07:57:53;;;;;;;9.80;6.40;;;;;;;5.52;68.42;96557.40;1739066;81;21010;-65
2022/02/21 08:00:21;;;;;;;8.85;5.65;;;;;;;5.53;68.37;96550.23;1749564;81;21106;-64
2022/02/21 08:02:50;;;;;;;8.25;5.42;;;;;;;5.53;68.27;96549.66;1743029;82;21486;-59
2022/02/21 08:05:17;;;;;;;7.65;5.22;;;;;;;5.54;68.30;96542.48;1744656;80;21092;-67
2022/02/21 08:07:51;;;;;;;9.00;5.53;;;;;;;5.57;68.31;96538.46;1704215;84;21044;-60
2022/02/21 08:10:25;;;;;;;18.43;11.53;;;;;;;5.57;68.24;96526.51;1679670;85;21053;-63
2022/02/21 08:12:57;;;;;;;;;;;;;;;5.58;68.35;96526.77;1693951;84;21134;-64
2022/02/21 08:15:29;;;;;;;10.28;7.22;;;;;;;5.59;68.42;96528.33;1699908;83;20447;-65
2022/02/21 08:18:15;;;;;;;9.10;6.28;;;;;;;5.59;68.35;96526.47;1689603;83;21503;-65
2022/02/21 08:20:47;;;;;;;9.43;6.22;;;;;;;5.60;68.24;96524.60;1681925;84;21400;-64
2022/02/21 08:23:20;;;;;;;10.10;6.92;;;;;;;5.60;68.19;96521.95;1696983;83;20931;-64
2022/02/21 08:25:50;;;;;;;16.05;7.05;;;;;;;5.59;68.32;96505.75;1700379;82;21552;-61
2022/02/21 08:28:25;;;;;;;11.20;6.25;;;;;;;5.60;68.40;96490.07;1676676;84;20892;-62
2022/02/21 08:30:58;;;;;;;10.10;6.60;;;;;;;5.63;68.18;96492.15;1673342;84;21023;-65
2022/02/21 08:33:35;;;;;;;9.40;6.22;;;;;;;5.65;68.07;96499.28;1681415;84;21015;-61
2022/02/21 08:36:07;;;;;;;17.87;11.53;;;;;;;5.70;67.97;96497.86;1687891;84;21440;-62
2022/02/21 08:38:36;;;;;;;11.95;7.65;;;;;;;5.75;67.82;96499.86;1695239;83;20984;-63
2022/02/21 08:41:03;;;;;;;12.43;7.33;;;;;;;5.81;67.74;96500.03;1708742;83;21108;-68
2022/02/21 08:43:30;;;;;;;15.10;8.63;;;;;;;5.88;67.53;96490.36;1689407;83;21518;-60
2022/02/21 08:45:57;;;;;;;16.52;10.72;;;;;;;5.91;66.82;96497.75;1689963;84;21136;-62
2022/02/21 08:48:24;;;;;;;14.60;8.13;;;;;;;5.93;66.91;96494.25;1686993;84;21079;-65
2022/02/21 08:50:51;;;;;;;15.50;9.93;;;;;;;5.92;66.85;96497.44;1702036;83;21586;-63
2022/02/21 08:53:18;;;;;;;11.40;7.83;;;;;;;5.95;66.99;96487.55;1698966;83;21125;-65
2022/02/21 08:55:45;;;;;;;10.05;7.33;;;;;;;5.99;66.68;96490.39;1711312;83;21165;-64
2022/02/21 08:58:12;;;;;;;13.00;7.30;;;;;;;6.04;66.77;96492.95;1714244;82;21114;-61
2022/02/21 09:00:40;;;;;;;13.62;7.35;;;;;;;6.06;66.68;96487.59;1705798;82;21136;-64
2022/02/21 09:03:07;;;;;;;13.50;7.08;;;;;;;6.08;66.46;96492.05;1724302;82;21454;-63
2022/02/21 09:05:35;;;;;;;8.33;6.53;;;;;;;6.12;66.51;96494.92;1718551;82;21734;-64
2022/02/21 09:08:04;;;;;;;11.08;6.30;;;;;;;6.15;66.28;96479.69;1698037;83;20848;-63
2022/02/21 09:10:31;;;;;;;9.45;6.37;;;;;;;6.18;66.04;96480.43;1732269;81;21545;-64
2022/02/21 09:12:59;;;;;;;9.48;6.50;;;;;;;6.21;65.94;96473.20;1742722;81;20994;-62
2022/02/21 09:15:26;;;;;;;12.90;7.83;;;;;;;6.23;65.80;96484.31;1756272;80;20962;-66
2022/02/21 09:17:53;;;;;;;9.60;6.90;;;;;;;6.29;65.73;96484.44;1769171;80;21184;-64
2022/02/21 09:20:20;;;;;;;9.53;6.50;;;;;;;6.34;65.82;96474.23;1745563;81;20840;-66
2022/02/21 09:22:47;;;;;;;8.15;5.95;;;;;;;6.41;65.20;96478.06;1750612;81;21002;-67
2022/02/21 09:25:14;;;;;;;12.20;5.75;;;;;;;6.48;65.03;96477.11;1752249;82;21455;-68
2022/02/21 09:27:41;;;;;;;13.78;7.55;;;;;;;6.55;64.72;96476.69;1741468;81;20884;-70
2022/02/21 09:30:10;;;;;;;19.90;9.40;;;;;;;6.59;64.81;96490.44;1745937;81;21757;-69
2022/02/21 09:32:37;;;;;;;10.48;7.12;;;;;;;6.65;64.94;96485.23;1747578;81;21455;-66
2022/02/21 09:35:05;;;;;;;8.73;6.70;;;;;;;6.64;64.98;96480.99;1754035;81;21011;-67
2022/02/21 09:37:33;;;;;;;12.55;6.83;;;;;;;6.66;65.15;96480.17;1726497;83;21593;-68
2022/02/21 09:40:00;;;;;;;8.65;6.92;;;;;;;6.68;65.22;96487.84;1738144;82;21635;-60
2022/02/21 09:42:26;;;;;;;11.05;7.33;;;;;;;6.71;65.62;96475.28;1739222;81;21086;-64
2022/02/21 09:44:53;;;;;;;7.08;5.67;;;;;;;6.72;65.75;96460.33;1752019;81;21011;-65
2022/02/21 09:47:21;;;;;;;7.72;5.25;;;;;;;6.78;66.07;96457.78;1750608;81;21090;-65
2022/02/21 09:49:47;;;;;;;15.28;8.50;;;;;;;6.85;66.01;96455.48;1744037;81;21528;-62
2022/02/21 09:52:14;;;;;;;13.88;9.13;;;;;;;6.93;65.96;96457.17;1736355;81;21093;-62
2022/02/21 09:54:41;;;;;;;10.05;7.75;;;;;;;7.00;65.75;96464.19;1727068;83;21108;-63
2022/02/21 09:57:08;;;;;;;11.88;8.45;;;;;;;7.06;65.46;96449.67;1727573;83;20943;-61
2022/02/21 09:59:38;;;;;;;8.38;6.85;;;;;;;7.13;65.34;96452.69;1728015;83;20986;-66
2022/02/21 10:02:06;;;;;;;7.03;6.17;;;;;;;7.17;65.27;96449.66;1732103;81;20987;-63
2022/02/21 10:04:33;;;;;;;8.93;6.40;;;;;;;7.22;64.82;96437.00;1741675;81;21397;-65
2022/02/21 10:07:01;;;;;;;9.25;6.17;;;;;;;7.25;64.58;96444.93;1739486;81;21378;-62
2022/02/21 10:09:28;;;;;;;11.25;6.30;;;;;;;7.29;64.42;96448.55;1739850;81;21002;-61
2022/02/21 10:11:59;;;;;;;8.50;6.55;;;;;;;7.31;64.23;96438.37;1739003;81;21006;-63
2022/02/21 10:14:29;;;;;;;11.68;7.87;;;;;;;7.32;64.17;96446.07;1749703;81;20993;-65
2022/02/21 10:17:00;;;;;;;13.13;10.32;;;;;;;7.32;64.13;96440.75;1744185;81;20919;-60
2022/02/21 10:19:38;;;;;;;11.70;8.28;;;;;;;7.31;64.18;96433.04;1736945;81;21117;-61
2022/02/21 10:22:13;;;;;;;8.90;5.90;;;;;;;7.31;64.04;96433.04;1742431;81;20932;-63
2022/02/21 10:24:52;;;;;;;8.20;6.28;;;;;;;7.28;63.56;96438.43;1736145;81;20904;-61
2022/02/21 10:27:23;;;;;;;7.47;5.22;;;;;;;7.26;63.91;96439.29;1757927;78;20943;-63
2022/02/21 10:30:02;;;;;;;8.20;6.08;;;;;;;7.22;63.44;96440.20;1745093;81;21020;-64
2022/02/21 10:32:35;;;;;;;7.58;5.42;;;;;;;7.19;63.60;96414.97;1744399;81;21071;-66
2022/02/21 10:35:23;;;;;;;7.03;5.20;;;;;;;7.18;63.55;96420.61;1753398;81;20951;-63
2022/02/21 10:37:58;;;;;;;8.23;5.47;;;;;;;7.17;63.64;96416.38;1737725;81;20883;-65
2022/02/21 10:40:36;;;;;;;7.80;5.90;;;;;;;7.15;63.63;96414.02;1757747;81;21491;-69
2022/02/21 10:43:07;;;;;;;8.43;5.55;;;;;;;7.13;63.82;96418.87;1748002;81;20960;-63
2022/02/21 10:45:33;;;;;;;6.12;5.35;;;;;;;7.11;63.87;96416.27;1758044;81;21103;-64
2022/02/21 10:48:08;;;;;;;9.70;5.58;;;;;;;7.10;64.03;96414.69;1757744;81;20919;-63
2022/02/21 10:51:00;;;;;;;8.83;5.45;;;;;;;7.10;64.18;96416.02;1756600;81;20979;-62
2022/02/21 10:53:44;;;;;;;8.68;5.55;;;;;;;7.11;64.21;96418.94;1755730;81;21022;-64
2022/02/21 10:56:12;;;;;;;5.40;4.83;;;;;;;7.13;64.25;96422.08;1755177;81;20995;-65
2022/02/21 10:58:39;;;;;;;7.10;5.33;;;;;;;7.16;64.08;96416.14;1754119;81;21103;-58
2022/02/21 11:01:07;;;;;;;7.78;5.10;;;;;;;7.18;63.95;96416.63;1756487;81;20940;-63
2022/02/21 11:03:34;;;;;;;8.10;4.28;;;;;;;7.21;63.90;96412.78;1750007;81;21014;-61
2022/02/21 11:06:01;;;;;;;7.15;5.15;;;;;;;7.23;63.43;96413.27;1747753;81;21529;-61
2022/02/21 11:11:13;;;;;;;9.13;5.58;;;;;;;7.28;63.17;96412.34;1704061;83;21625;-64
2022/02/21 11:13:40;;;;;;;6.55;5.22;;;;;;;7.32;62.88;96411.98;1756911;81;21043;-67
2022/02/21 11:16:06;;;;;;;8.75;5.22;;;;;;;7.33;62.58;96393.03;1692651;82;21290;-66
2022/02/21 11:18:34;;;;;;;9.40;7.47;;;;;;;7.36;62.16;96399.08;1735321;82;21451;-64
2022/02/21 11:21:00;;;;;;;8.35;6.65;;;;;;;7.40;62.10;96408.55;1731513;82;21051;-67
2022/02/21 11:23:27;;;;;;;8.95;5.05;;;;;;;7.42;61.81;96403.70;1718782;83;22245;-60
2022/02/21 11:26:02;;;;;;;8.53;4.62;;;;;;;7.45;61.31;96401.77;1721504;83;21039;-61
2022/02/21 11:28:34;;;;;;;5.75;4.25;;;;;;;7.47;61.30;96400.36;1742311;82;20970;-63
2022/02/21 11:31:03;;;;;;;8.55;4.70;;;;;;;7.49;61.06;96403.50;1723083;83;21609;-65
2022/02/21 11:33:31;;;;;;;7.85;4.45;;;;;;;7.52;60.74;96405.56;1742417;82;20974;-69
2022/02/21 11:36:08;;;;;;;10.48;4.85;;;;;;;7.55;60.68;96396.95;1723289;83;21147;-66
2022/02/21 11:38:40;;;;;;;7.30;4.80;;;;;;;7.58;60.42;96395.56;1741763;82;20975;-67
2022/02/21 11:41:16;;;;;;;6.08;4.47;;;;;;;7.62;60.21;96391.17;1724171;83;21042;-60
2022/02/21 11:43:44;;;;;;;8.58;6.22;;;;;;;7.66;60.23;96393.45;1743082;81;20978;-64
2022/02/21 11:46:14;;;;;;;9.85;6.80;;;;;;;7.70;60.15;96393.63;1719577;83;21048;-65